sensor_id;sensor_type;location;lat;lon;timestamp;P1;durP1;ratioP1;P2;durP2;ratioP2
28545;SDS011;15749;49.606;8.738;2023-02-28T00:00:33;1.60;;;1.10;;
28545;SDS011;15749;49.606;8.738;2023-02-28T00:03:03;1.23;;;1.10;;
28545;SDS011;15749;49.606;8.738;2023-02-28T00:05:33;1.67;;;1.30;;
28545;SDS011;15749;49.606;8.738;2023-02-28T00:08:02;1.30;;;1.20;;
28545;SDS011;15749;49.606;8.738;2023-02-28T00:10:32;2.10;;;1.60;;
28545;SDS011;15749;49.606;8.738;2023-02-28T00:13:02;1.50;;;1.20;;
28545;SDS011;15749;49.606;8.738;2023-02-28T00:15:35;1.90;;;1.37;;
28545;SDS011;15749;49.606;8.738;2023-02-28T00:18:04;1.73;;;1.43;;
28545;SDS011;15749;49.606;8.738;2023-02-28T00:20:33;1.67;;;1.50;;
28545;SDS011;15749;49.606;8.738;2023-02-28T00:23:02;2.00;;;1.40;;
28545;SDS011;15749;49.606;8.738;2023-02-28T00:25:31;1.97;;;1.40;;
28545;SDS011;15749;49.606;8.738;2023-02-28T00:28:00;1.63;;;1.33;;
28545;SDS011;15749;49.606;8.738;2023-02-28T00:30:29;1.23;;;1.10;;
28545;SDS011;15749;49.606;8.738;2023-02-28T00:32:59;1.47;;;1.27;;
28545;SDS011;15749;49.606;8.738;2023-02-28T00:35:28;2.63;;;1.60;;
28545;SDS011;15749;49.606;8.738;2023-02-28T00:37:57;2.00;;;1.37;;
28545;SDS011;15749;49.606;8.738;2023-02-28T00:40:27;1.80;;;1.27;;
28545;SDS011;15749;49.606;8.738;2023-02-28T00:42:59;1.50;;;1.30;;
28545;SDS011;15749;49.606;8.738;2023-02-28T00:45:28;1.67;;;1.40;;
28545;SDS011;15749;49.606;8.738;2023-02-28T00:47:57;2.27;;;1.60;;
28545;SDS011;15749;49.606;8.738;2023-02-28T00:50:28;2.00;;;1.60;;
28545;SDS011;15749;49.606;8.738;2023-02-28T00:52:57;1.70;;;1.40;;
28545;SDS011;15749;49.606;8.738;2023-02-28T00:55:26;1.70;;;1.27;;
28545;SDS011;15749;49.606;8.738;2023-02-28T00:57:55;2.00;;;1.50;;
28545;SDS011;15749;49.606;8.738;2023-02-28T01:00:27;1.57;;;1.47;;
28545;SDS011;15749;49.606;8.738;2023-02-28T01:02:57;2.00;;;1.40;;
28545;SDS011;15749;49.606;8.738;2023-02-28T01:05:27;1.50;;;1.40;;
28545;SDS011;15749;49.606;8.738;2023-02-28T01:07:58;1.33;;;1.23;;
28545;SDS011;15749;49.606;8.738;2023-02-28T01:10:27;1.50;;;1.40;;
28545;SDS011;15749;49.606;8.738;2023-02-28T01:12:58;1.80;;;1.57;;
28545;SDS011;15749;49.606;8.738;2023-02-28T01:15:27;1.70;;;1.57;;
28545;SDS011;15749;49.606;8.738;2023-02-28T01:17:56;1.67;;;1.53;;
28545;SDS011;15749;49.606;8.738;2023-02-28T01:20:27;1.60;;;1.47;;
28545;SDS011;15749;49.606;8.738;2023-02-28T01:22:56;1.77;;;1.43;;
28545;SDS011;15749;49.606;8.738;2023-02-28T01:25:25;1.70;;;1.53;;
28545;SDS011;15749;49.606;8.738;2023-02-28T01:27:54;2.37;;;1.63;;
28545;SDS011;15749;49.606;8.738;2023-02-28T01:30:26;1.40;;;1.30;;
28545;SDS011;15749;49.606;8.738;2023-02-28T01:32:55;1.80;;;1.47;;
28545;SDS011;15749;49.606;8.738;2023-02-28T01:35:26;1.43;;;1.33;;
28545;SDS011;15749;49.606;8.738;2023-02-28T01:37:55;1.70;;;1.60;;
28545;SDS011;15749;49.606;8.738;2023-02-28T01:40:38;2.00;;;1.60;;
28545;SDS011;15749;49.606;8.738;2023-02-28T01:43:09;1.80;;;1.70;;
28545;SDS011;15749;49.606;8.738;2023-02-28T01:45:50;2.33;;;1.63;;
28545;SDS011;15749;49.606;8.738;2023-02-28T01:48:20;1.93;;;1.73;;
28545;SDS011;15749;49.606;8.738;2023-02-28T01:50:54;2.40;;;1.60;;
28545;SDS011;15749;49.606;8.738;2023-02-28T01:53:29;1.90;;;1.70;;
28545;SDS011;15749;49.606;8.738;2023-02-28T01:56:05;1.67;;;1.57;;
28545;SDS011;15749;49.606;8.738;2023-02-28T01:58:38;2.80;;;1.97;;
28545;SDS011;15749;49.606;8.738;2023-02-28T02:01:07;1.83;;;1.67;;
28545;SDS011;15749;49.606;8.738;2023-02-28T02:03:36;2.07;;;1.80;;
28545;SDS011;15749;49.606;8.738;2023-02-28T02:06:06;2.20;;;1.70;;
28545;SDS011;15749;49.606;8.738;2023-02-28T02:08:35;1.70;;;1.60;;
28545;SDS011;15749;49.606;8.738;2023-02-28T02:11:07;1.63;;;1.53;;
28545;SDS011;15749;49.606;8.738;2023-02-28T02:13:44;2.00;;;1.80;;
28545;SDS011;15749;49.606;8.738;2023-02-28T02:16:34;2.03;;;1.70;;
28545;SDS011;15749;49.606;8.738;2023-02-28T02:19:28;2.03;;;1.80;;
28545;SDS011;15749;49.606;8.738;2023-02-28T02:26:15;1.90;;;1.73;;
28545;SDS011;15749;49.606;8.738;2023-02-28T02:29:26;2.13;;;1.70;;
28545;SDS011;15749;49.606;8.738;2023-02-28T02:32:26;1.93;;;1.73;;
28545;SDS011;15749;49.606;8.738;2023-02-28T02:35:40;1.83;;;1.50;;
28545;SDS011;15749;49.606;8.738;2023-02-28T02:38:17;2.07;;;1.87;;
28545;SDS011;15749;49.606;8.738;2023-02-28T02:41:04;1.90;;;1.60;;
28545;SDS011;15749;49.606;8.738;2023-02-28T02:43:40;1.97;;;1.70;;
28545;SDS011;15749;49.606;8.738;2023-02-28T02:46:17;2.10;;;1.77;;
28545;SDS011;15749;49.606;8.738;2023-02-28T02:48:55;2.10;;;1.87;;
28545;SDS011;15749;49.606;8.738;2023-02-28T02:51:29;1.70;;;1.60;;
28545;SDS011;15749;49.606;8.738;2023-02-28T02:54:02;1.83;;;1.60;;
28545;SDS011;15749;49.606;8.738;2023-02-28T02:56:39;1.60;;;1.50;;
28545;SDS011;15749;49.606;8.738;2023-02-28T02:59:13;2.27;;;1.97;;
28545;SDS011;15749;49.606;8.738;2023-02-28T03:01:48;2.40;;;1.90;;
28545;SDS011;15749;49.606;8.738;2023-02-28T03:04:22;2.60;;;1.90;;
28545;SDS011;15749;49.606;8.738;2023-02-28T03:06:59;2.60;;;1.70;;
28545;SDS011;15749;49.606;8.738;2023-02-28T03:09:28;2.37;;;1.93;;
28545;SDS011;15749;49.606;8.738;2023-02-28T03:12:02;2.20;;;1.80;;
28545;SDS011;15749;49.606;8.738;2023-02-28T03:14:45;2.73;;;1.90;;
28545;SDS011;15749;49.606;8.738;2023-02-28T03:17:37;1.77;;;1.67;;
28545;SDS011;15749;49.606;8.738;2023-02-28T03:20:35;4.50;;;1.93;;
28545;SDS011;15749;49.606;8.738;2023-02-28T03:23:15;2.20;;;2.00;;
28545;SDS011;15749;49.606;8.738;2023-02-28T03:25:52;3.37;;;1.63;;
28545;SDS011;15749;49.606;8.738;2023-02-28T03:28:30;2.40;;;1.93;;
28545;SDS011;15749;49.606;8.738;2023-02-28T03:31:07;1.97;;;1.80;;
28545;SDS011;15749;49.606;8.738;2023-02-28T03:33:46;2.30;;;2.10;;
28545;SDS011;15749;49.606;8.738;2023-02-28T03:36:22;1.70;;;1.60;;
28545;SDS011;15749;49.606;8.738;2023-02-28T03:38:57;1.90;;;1.70;;
28545;SDS011;15749;49.606;8.738;2023-02-28T03:41:33;2.03;;;1.80;;
28545;SDS011;15749;49.606;8.738;2023-02-28T03:44:08;1.87;;;1.77;;
28545;SDS011;15749;49.606;8.738;2023-02-28T03:46:44;1.80;;;1.70;;
28545;SDS011;15749;49.606;8.738;2023-02-28T03:49:20;2.20;;;1.93;;
28545;SDS011;15749;49.606;8.738;2023-02-28T03:51:56;2.07;;;1.87;;
28545;SDS011;15749;49.606;8.738;2023-02-28T03:54:30;2.10;;;1.90;;
28545;SDS011;15749;49.606;8.738;2023-02-28T03:57:04;2.20;;;1.90;;
28545;SDS011;15749;49.606;8.738;2023-02-28T03:59:41;1.83;;;1.70;;
28545;SDS011;15749;49.606;8.738;2023-02-28T04:02:13;2.67;;;1.67;;
28545;SDS011;15749;49.606;8.738;2023-02-28T04:04:42;2.07;;;1.87;;
28545;SDS011;15749;49.606;8.738;2023-02-28T04:07:15;2.00;;;1.80;;
28545;SDS011;15749;49.606;8.738;2023-02-28T04:09:49;2.00;;;1.67;;
28545;SDS011;15749;49.606;8.738;2023-02-28T04:12:19;1.80;;;1.70;;
28545;SDS011;15749;49.606;8.738;2023-02-28T04:14:52;1.93;;;1.73;;
28545;SDS011;15749;49.606;8.738;2023-02-28T04:17:21;1.97;;;1.70;;
28545;SDS011;15749;49.606;8.738;2023-02-28T04:19:50;3.43;;;1.87;;
28545;SDS011;15749;49.606;8.738;2023-02-28T04:22:21;1.90;;;1.67;;
28545;SDS011;15749;49.606;8.738;2023-02-28T04:24:54;2.47;;;1.83;;
28545;SDS011;15749;49.606;8.738;2023-02-28T04:27:23;1.93;;;1.77;;
28545;SDS011;15749;49.606;8.738;2023-02-28T04:29:52;1.93;;;1.73;;
28545;SDS011;15749;49.606;8.738;2023-02-28T04:32:21;1.73;;;1.63;;
28545;SDS011;15749;49.606;8.738;2023-02-28T04:34:52;2.10;;;1.90;;
28545;SDS011;15749;49.606;8.738;2023-02-28T04:37:21;1.77;;;1.67;;
28545;SDS011;15749;49.606;8.738;2023-02-28T04:39:56;1.83;;;1.70;;
28545;SDS011;15749;49.606;8.738;2023-02-28T04:42:25;2.20;;;1.90;;
28545;SDS011;15749;49.606;8.738;2023-02-28T04:44:54;1.90;;;1.60;;
28545;SDS011;15749;49.606;8.738;2023-02-28T04:47:23;2.73;;;2.00;;
28545;SDS011;15749;49.606;8.738;2023-02-28T04:49:52;2.27;;;1.80;;
28545;SDS011;15749;49.606;8.738;2023-02-28T04:52:21;2.40;;;2.20;;
28545;SDS011;15749;49.606;8.738;2023-02-28T04:54:50;2.30;;;2.07;;
28545;SDS011;15749;49.606;8.738;2023-02-28T04:57:21;2.10;;;1.90;;
28545;SDS011;15749;49.606;8.738;2023-02-28T04:59:50;2.70;;;1.90;;
28545;SDS011;15749;49.606;8.738;2023-02-28T05:02:19;2.10;;;1.90;;
28545;SDS011;15749;49.606;8.738;2023-02-28T05:04:48;1.90;;;1.80;;
28545;SDS011;15749;49.606;8.738;2023-02-28T05:07:17;2.83;;;2.00;;
28545;SDS011;15749;49.606;8.738;2023-02-28T05:09:46;2.30;;;2.10;;
28545;SDS011;15749;49.606;8.738;2023-02-28T05:12:15;2.83;;;2.20;;
28545;SDS011;15749;49.606;8.738;2023-02-28T05:14:45;2.53;;;2.33;;
28545;SDS011;15749;49.606;8.738;2023-02-28T05:17:14;2.50;;;2.10;;
28545;SDS011;15749;49.606;8.738;2023-02-28T05:19:43;2.80;;;2.00;;
28545;SDS011;15749;49.606;8.738;2023-02-28T05:22:13;2.13;;;1.93;;
28545;SDS011;15749;49.606;8.738;2023-02-28T05:24:44;2.60;;;2.17;;
28545;SDS011;15749;49.606;8.738;2023-02-28T05:27:13;2.20;;;2.00;;
28545;SDS011;15749;49.606;8.738;2023-02-28T05:29:42;2.53;;;2.33;;
28545;SDS011;15749;49.606;8.738;2023-02-28T05:32:15;2.77;;;2.00;;
28545;SDS011;15749;49.606;8.738;2023-02-28T05:34:44;2.73;;;2.33;;
28545;SDS011;15749;49.606;8.738;2023-02-28T05:37:13;2.57;;;2.27;;
28545;SDS011;15749;49.606;8.738;2023-02-28T05:39:43;2.57;;;2.20;;
28545;SDS011;15749;49.606;8.738;2023-02-28T05:42:12;2.40;;;2.10;;
28545;SDS011;15749;49.606;8.738;2023-02-28T05:44:41;4.07;;;2.40;;
28545;SDS011;15749;49.606;8.738;2023-02-28T05:47:10;3.07;;;2.50;;
28545;SDS011;15749;49.606;8.738;2023-02-28T05:49:43;3.40;;;2.43;;
28545;SDS011;15749;49.606;8.738;2023-02-28T05:52:15;2.40;;;2.20;;
28545;SDS011;15749;49.606;8.738;2023-02-28T05:54:47;2.50;;;2.17;;
28545;SDS011;15749;49.606;8.738;2023-02-28T05:57:16;2.87;;;2.37;;
28545;SDS011;15749;49.606;8.738;2023-02-28T05:59:53;2.50;;;2.30;;
28545;SDS011;15749;49.606;8.738;2023-02-28T06:02:22;3.33;;;2.10;;
28545;SDS011;15749;49.606;8.738;2023-02-28T06:04:53;2.30;;;2.00;;
28545;SDS011;15749;49.606;8.738;2023-02-28T06:07:22;2.40;;;2.20;;
28545;SDS011;15749;49.606;8.738;2023-02-28T06:09:51;3.47;;;2.50;;
28545;SDS011;15749;49.606;8.738;2023-02-28T06:12:20;2.40;;;2.20;;
28545;SDS011;15749;49.606;8.738;2023-02-28T06:14:49;2.50;;;2.30;;
28545;SDS011;15749;49.606;8.738;2023-02-28T06:17:18;2.63;;;2.43;;
28545;SDS011;15749;49.606;8.738;2023-02-28T06:19:47;4.27;;;3.37;;
28545;SDS011;15749;49.606;8.738;2023-02-28T06:22:17;8.70;;;7.80;;
28545;SDS011;15749;49.606;8.738;2023-02-28T06:24:49;8.83;;;8.03;;
28545;SDS011;15749;49.606;8.738;2023-02-28T06:27:19;5.10;;;4.60;;
28545;SDS011;15749;49.606;8.738;2023-02-28T06:29:52;4.03;;;3.57;;
28545;SDS011;15749;49.606;8.738;2023-02-28T06:32:22;3.20;;;2.90;;
28545;SDS011;15749;49.606;8.738;2023-02-28T06:34:51;3.50;;;3.20;;
28545;SDS011;15749;49.606;8.738;2023-02-28T06:37:22;3.17;;;2.90;;
28545;SDS011;15749;49.606;8.738;2023-02-28T06:39:53;3.70;;;3.40;;
28545;SDS011;15749;49.606;8.738;2023-02-28T06:42:24;3.80;;;3.50;;
28545;SDS011;15749;49.606;8.738;2023-02-28T06:44:56;3.13;;;2.83;;
28545;SDS011;15749;49.606;8.738;2023-02-28T06:47:25;3.37;;;3.07;;
28545;SDS011;15749;49.606;8.738;2023-02-28T06:49:54;2.80;;;2.60;;
28545;SDS011;15749;49.606;8.738;2023-02-28T06:52:24;3.13;;;2.83;;
28545;SDS011;15749;49.606;8.738;2023-02-28T06:54:53;2.97;;;2.73;;
28545;SDS011;15749;49.606;8.738;2023-02-28T06:57:27;4.20;;;2.50;;
28545;SDS011;15749;49.606;8.738;2023-02-28T06:59:58;2.80;;;2.60;;
28545;SDS011;15749;49.606;8.738;2023-02-28T07:02:28;2.97;;;2.67;;
28545;SDS011;15749;49.606;8.738;2023-02-28T07:04:58;3.03;;;2.73;;
28545;SDS011;15749;49.606;8.738;2023-02-28T07:07:28;3.23;;;2.70;;
28545;SDS011;15749;49.606;8.738;2023-02-28T07:09:58;2.77;;;2.57;;
28545;SDS011;15749;49.606;8.738;2023-02-28T07:12:27;3.87;;;2.70;;
28545;SDS011;15749;49.606;8.738;2023-02-28T07:14:56;3.30;;;2.50;;
28545;SDS011;15749;49.606;8.738;2023-02-28T07:17:25;3.00;;;2.67;;
28545;SDS011;15749;49.606;8.738;2023-02-28T07:19:57;2.90;;;2.60;;
28545;SDS011;15749;49.606;8.738;2023-02-28T07:22:26;3.20;;;2.87;;
28545;SDS011;15749;49.606;8.738;2023-02-28T07:24:57;2.90;;;2.57;;
28545;SDS011;15749;49.606;8.738;2023-02-28T07:27:28;4.23;;;2.90;;
28545;SDS011;15749;49.606;8.738;2023-02-28T07:29:57;3.27;;;2.80;;
28545;SDS011;15749;49.606;8.738;2023-02-28T07:32:28;3.60;;;2.90;;
28545;SDS011;15749;49.606;8.738;2023-02-28T07:34:57;3.10;;;2.80;;
28545;SDS011;15749;49.606;8.738;2023-02-28T07:37:27;3.57;;;2.87;;
28545;SDS011;15749;49.606;8.738;2023-02-28T07:40:00;2.70;;;2.50;;
28545;SDS011;15749;49.606;8.738;2023-02-28T07:42:31;3.30;;;2.60;;
28545;SDS011;15749;49.606;8.738;2023-02-28T07:45:04;3.87;;;2.80;;
28545;SDS011;15749;49.606;8.738;2023-02-28T07:47:34;4.00;;;3.00;;
28545;SDS011;15749;49.606;8.738;2023-02-28T07:50:04;3.07;;;2.57;;
28545;SDS011;15749;49.606;8.738;2023-02-28T07:52:34;3.17;;;2.73;;
28545;SDS011;15749;49.606;8.738;2023-02-28T08:01:44;3.67;;;3.00;;
28545;SDS011;15749;49.606;8.738;2023-02-28T08:04:13;3.67;;;3.00;;
28545;SDS011;15749;49.606;8.738;2023-02-28T08:06:42;3.10;;;2.67;;
28545;SDS011;15749;49.606;8.738;2023-02-28T08:09:11;3.33;;;2.97;;
28545;SDS011;15749;49.606;8.738;2023-02-28T08:11:42;3.10;;;2.47;;
28545;SDS011;15749;49.606;8.738;2023-02-28T08:14:11;3.60;;;3.30;;
28545;SDS011;15749;49.606;8.738;2023-02-28T08:16:41;3.63;;;2.80;;
28545;SDS011;15749;49.606;8.738;2023-02-28T08:19:10;3.10;;;2.80;;
28545;SDS011;15749;49.606;8.738;2023-02-28T08:21:39;3.17;;;2.87;;
28545;SDS011;15749;49.606;8.738;2023-02-28T08:24:09;3.63;;;3.00;;
28545;SDS011;15749;49.606;8.738;2023-02-28T08:26:37;3.07;;;2.80;;
28545;SDS011;15749;49.606;8.738;2023-02-28T08:29:10;3.70;;;3.00;;
28545;SDS011;15749;49.606;8.738;2023-02-28T08:31:39;3.40;;;2.90;;
28545;SDS011;15749;49.606;8.738;2023-02-28T08:34:10;3.80;;;3.07;;
28545;SDS011;15749;49.606;8.738;2023-02-28T08:36:41;6.00;;;2.90;;
28545;SDS011;15749;49.606;8.738;2023-02-28T08:39:11;3.13;;;2.83;;
28545;SDS011;15749;49.606;8.738;2023-02-28T08:41:41;3.33;;;3.03;;
28545;SDS011;15749;49.606;8.738;2023-02-28T08:44:15;3.50;;;3.20;;
28545;SDS011;15749;49.606;8.738;2023-02-28T08:46:44;3.67;;;3.10;;
28545;SDS011;15749;49.606;8.738;2023-02-28T08:49:13;4.00;;;3.60;;
28545;SDS011;15749;49.606;8.738;2023-02-28T08:51:42;3.60;;;3.30;;
28545;SDS011;15749;49.606;8.738;2023-02-28T08:54:14;4.03;;;3.63;;
28545;SDS011;15749;49.606;8.738;2023-02-28T08:56:46;3.80;;;3.47;;
28545;SDS011;15749;49.606;8.738;2023-02-28T08:59:16;3.63;;;3.33;;
28545;SDS011;15749;49.606;8.738;2023-02-28T09:01:45;3.40;;;3.10;;
28545;SDS011;15749;49.606;8.738;2023-02-28T09:04:17;3.30;;;3.00;;
28545;SDS011;15749;49.606;8.738;2023-02-28T09:06:50;3.47;;;3.17;;
28545;SDS011;15749;49.606;8.738;2023-02-28T09:09:19;4.17;;;3.33;;
28545;SDS011;15749;49.606;8.738;2023-02-28T09:11:48;4.07;;;3.30;;
28545;SDS011;15749;49.606;8.738;2023-02-28T09:14:18;3.40;;;3.10;;
28545;SDS011;15749;49.606;8.738;2023-02-28T09:16:48;4.33;;;3.20;;
28545;SDS011;15749;49.606;8.738;2023-02-28T09:19:17;3.53;;;3.23;;
28545;SDS011;15749;49.606;8.738;2023-02-28T09:21:46;4.10;;;3.70;;
28545;SDS011;15749;49.606;8.738;2023-02-28T09:24:15;3.73;;;3.37;;
28545;SDS011;15749;49.606;8.738;2023-02-28T09:26:45;3.90;;;3.33;;
28545;SDS011;15749;49.606;8.738;2023-02-28T09:29:32;6.33;;;3.20;;
28545;SDS011;15749;49.606;8.738;2023-02-28T09:32:03;3.80;;;3.17;;
28545;SDS011;15749;49.606;8.738;2023-02-28T09:34:35;4.83;;;3.40;;
28545;SDS011;15749;49.606;8.738;2023-02-28T09:37:05;3.93;;;3.53;;
28545;SDS011;15749;49.606;8.738;2023-02-28T09:39:35;4.33;;;3.67;;
28545;SDS011;15749;49.606;8.738;2023-02-28T09:42:04;3.23;;;2.93;;
28545;SDS011;15749;49.606;8.738;2023-02-28T09:44:37;3.90;;;3.27;;
28545;SDS011;15749;49.606;8.738;2023-02-28T09:47:12;3.80;;;3.40;;
28545;SDS011;15749;49.606;8.738;2023-02-28T09:49:47;3.60;;;3.20;;
28545;SDS011;15749;49.606;8.738;2023-02-28T09:52:17;4.20;;;3.67;;
28545;SDS011;15749;49.606;8.738;2023-02-28T09:54:48;3.93;;;3.40;;
28545;SDS011;15749;49.606;8.738;2023-02-28T09:57:19;5.13;;;4.10;;
28545;SDS011;15749;49.606;8.738;2023-02-28T09:59:59;5.97;;;3.57;;
28545;SDS011;15749;49.606;8.738;2023-02-28T10:02:41;3.50;;;3.20;;
28545;SDS011;15749;49.606;8.738;2023-02-28T10:05:22;3.50;;;3.20;;
28545;SDS011;15749;49.606;8.738;2023-02-28T10:07:58;3.80;;;3.40;;
28545;SDS011;15749;49.606;8.738;2023-02-28T10:10:36;3.90;;;3.33;;
28545;SDS011;15749;49.606;8.738;2023-02-28T10:13:13;3.90;;;3.57;;
28545;SDS011;15749;49.606;8.738;2023-02-28T10:15:52;4.13;;;3.73;;
28545;SDS011;15749;49.606;8.738;2023-02-28T10:18:27;3.33;;;3.03;;
28545;SDS011;15749;49.606;8.738;2023-02-28T10:21:04;3.93;;;3.53;;
28545;SDS011;15749;49.606;8.738;2023-02-28T10:23:45;4.27;;;3.87;;
28545;SDS011;15749;49.606;8.738;2023-02-28T10:26:18;3.93;;;3.53;;
28545;SDS011;15749;49.606;8.738;2023-02-28T10:28:47;4.40;;;4.00;;
28545;SDS011;15749;49.606;8.738;2023-02-28T10:31:20;3.70;;;3.40;;
28545;SDS011;15749;49.606;8.738;2023-02-28T10:33:52;4.90;;;3.30;;
28545;SDS011;15749;49.606;8.738;2023-02-28T10:36:21;4.20;;;3.80;;
28545;SDS011;15749;49.606;8.738;2023-02-28T10:38:50;4.87;;;3.87;;
28545;SDS011;15749;49.606;8.738;2023-02-28T10:41:26;5.50;;;3.83;;
28545;SDS011;15749;49.606;8.738;2023-02-28T10:44:15;4.03;;;3.53;;
28545;SDS011;15749;49.606;8.738;2023-02-28T10:46:53;4.17;;;3.77;;
28545;SDS011;15749;49.606;8.738;2023-02-28T10:49:24;4.57;;;4.13;;
28545;SDS011;15749;49.606;8.738;2023-02-28T10:51:57;4.70;;;4.20;;
28545;SDS011;15749;49.606;8.738;2023-02-28T10:54:29;3.90;;;3.50;;
28545;SDS011;15749;49.606;8.738;2023-02-28T10:57:06;3.97;;;3.63;;
28545;SDS011;15749;49.606;8.738;2023-02-28T10:59:40;4.30;;;3.90;;
28545;SDS011;15749;49.606;8.738;2023-02-28T11:02:29;4.17;;;3.77;;
28545;SDS011;15749;49.606;8.738;2023-02-28T11:05:02;5.40;;;4.13;;
28545;SDS011;15749;49.606;8.738;2023-02-28T11:07:54;5.00;;;4.40;;
28545;SDS011;15749;49.606;8.738;2023-02-28T11:10:28;4.10;;;3.80;;
28545;SDS011;15749;49.606;8.738;2023-02-28T11:13:01;3.90;;;3.60;;
28545;SDS011;15749;49.606;8.738;2023-02-28T11:15:32;4.10;;;3.60;;
28545;SDS011;15749;49.606;8.738;2023-02-28T11:18:06;4.60;;;4.10;;
28545;SDS011;15749;49.606;8.738;2023-02-28T11:20:51;4.30;;;3.90;;
28545;SDS011;15749;49.606;8.738;2023-02-28T11:23:28;4.50;;;4.03;;
28545;SDS011;15749;49.606;8.738;2023-02-28T11:26:04;4.53;;;4.13;;
28545;SDS011;15749;49.606;8.738;2023-02-28T11:28:37;5.97;;;5.40;;
28545;SDS011;15749;49.606;8.738;2023-02-28T11:31:17;5.60;;;4.80;;
28545;SDS011;15749;49.606;8.738;2023-02-28T11:33:51;4.80;;;4.40;;
28545;SDS011;15749;49.606;8.738;2023-02-28T11:36:23;4.47;;;4.07;;
28545;SDS011;15749;49.606;8.738;2023-02-28T11:38:55;4.53;;;4.13;;
28545;SDS011;15749;49.606;8.738;2023-02-28T11:41:31;4.73;;;4.13;;
28545;SDS011;15749;49.606;8.738;2023-02-28T11:44:20;4.30;;;3.90;;
28545;SDS011;15749;49.606;8.738;2023-02-28T11:47:04;4.13;;;3.73;;
28545;SDS011;15749;49.606;8.738;2023-02-28T11:49:44;4.73;;;4.23;;
28545;SDS011;15749;49.606;8.738;2023-02-28T11:52:21;4.13;;;3.73;;
28545;SDS011;15749;49.606;8.738;2023-02-28T11:55:07;4.60;;;4.17;;
28545;SDS011;15749;49.606;8.738;2023-02-28T11:57:49;4.10;;;3.70;;
28545;SDS011;15749;49.606;8.738;2023-02-28T12:00:36;4.50;;;4.10;;
28545;SDS011;15749;49.606;8.738;2023-02-28T12:03:17;4.13;;;3.73;;
28545;SDS011;15749;49.606;8.738;2023-02-28T12:06:01;4.43;;;4.03;;
28545;SDS011;15749;49.606;8.738;2023-02-28T12:08:53;4.37;;;3.97;;
28545;SDS011;15749;49.606;8.738;2023-02-28T12:11:48;4.53;;;4.13;;
28545;SDS011;15749;49.606;8.738;2023-02-28T12:14:25;4.67;;;4.23;;
28545;SDS011;15749;49.606;8.738;2023-02-28T12:17:27;5.07;;;4.00;;
28545;SDS011;15749;49.606;8.738;2023-02-28T12:20:13;5.33;;;4.63;;
28545;SDS011;15749;49.606;8.738;2023-02-28T12:22:55;4.63;;;4.23;;
28545;SDS011;15749;49.606;8.738;2023-02-28T12:25:41;4.33;;;3.93;;
28545;SDS011;15749;49.606;8.738;2023-02-28T12:28:32;4.87;;;4.27;;
28545;SDS011;15749;49.606;8.738;2023-02-28T12:31:08;5.13;;;4.17;;
28545;SDS011;15749;49.606;8.738;2023-02-28T12:33:45;4.50;;;4.10;;
28545;SDS011;15749;49.606;8.738;2023-02-28T12:36:23;4.10;;;3.70;;
28545;SDS011;15749;49.606;8.738;2023-02-28T12:38:55;4.13;;;3.70;;
28545;SDS011;15749;49.606;8.738;2023-02-28T12:41:29;4.43;;;4.03;;
28545;SDS011;15749;49.606;8.738;2023-02-28T12:44:06;4.80;;;4.20;;
28545;SDS011;15749;49.606;8.738;2023-02-28T12:46:41;5.20;;;4.70;;
28545;SDS011;15749;49.606;8.738;2023-02-28T12:49:13;6.00;;;4.50;;
28545;SDS011;15749;49.606;8.738;2023-02-28T12:51:47;6.67;;;4.40;;
28545;SDS011;15749;49.606;8.738;2023-02-28T12:54:21;4.37;;;3.97;;
28545;SDS011;15749;49.606;8.738;2023-02-28T12:56:56;4.70;;;4.20;;
28545;SDS011;15749;49.606;8.738;2023-02-28T12:59:37;4.80;;;4.37;;
28545;SDS011;15749;49.606;8.738;2023-02-28T13:02:18;5.07;;;4.37;;
28545;SDS011;15749;49.606;8.738;2023-02-28T13:05:38;4.27;;;3.87;;
28545;SDS011;15749;49.606;8.738;2023-02-28T13:11:41;4.37;;;3.97;;
28545;SDS011;15749;49.606;8.738;2023-02-28T13:14:20;4.23;;;3.83;;
28545;SDS011;15749;49.606;8.738;2023-02-28T13:16:58;4.47;;;4.07;;
28545;SDS011;15749;49.606;8.738;2023-02-28T13:19:31;3.93;;;3.50;;
28545;SDS011;15749;49.606;8.738;2023-02-28T13:22:03;4.07;;;3.67;;
28545;SDS011;15749;49.606;8.738;2023-02-28T13:24:40;5.53;;;4.60;;
28545;SDS011;15749;49.606;8.738;2023-02-28T13:33:31;4.40;;;4.00;;
28545;SDS011;15749;49.606;8.738;2023-02-28T13:36:09;4.60;;;4.20;;
28545;SDS011;15749;49.606;8.738;2023-02-28T13:38:57;4.30;;;3.90;;
28545;SDS011;15749;49.606;8.738;2023-02-28T13:41:42;4.67;;;4.23;;
28545;SDS011;15749;49.606;8.738;2023-02-28T13:44:18;3.93;;;3.63;;
28545;SDS011;15749;49.606;8.738;2023-02-28T13:49:52;4.40;;;4.00;;
28545;SDS011;15749;49.606;8.738;2023-02-28T13:52:24;5.40;;;4.87;;
28545;SDS011;15749;49.606;8.738;2023-02-28T13:54:58;5.00;;;4.50;;
28545;SDS011;15749;49.606;8.738;2023-02-28T13:57:53;4.60;;;4.20;;
28545;SDS011;15749;49.606;8.738;2023-02-28T14:00:45;4.37;;;3.97;;
28545;SDS011;15749;49.606;8.738;2023-02-28T14:03:35;4.77;;;4.10;;
28545;SDS011;15749;49.606;8.738;2023-02-28T14:06:30;4.30;;;3.90;;
28545;SDS011;15749;49.606;8.738;2023-02-28T14:09:03;5.33;;;4.70;;
28545;SDS011;15749;49.606;8.738;2023-02-28T14:11:50;4.47;;;3.83;;
28545;SDS011;15749;49.606;8.738;2023-02-28T14:17:26;4.70;;;3.80;;
28545;SDS011;15749;49.606;8.738;2023-02-28T14:19:55;4.83;;;4.40;;
28545;SDS011;15749;49.606;8.738;2023-02-28T14:22:36;4.90;;;4.33;;
28545;SDS011;15749;49.606;8.738;2023-02-28T14:25:22;4.43;;;4.03;;
28545;SDS011;15749;49.606;8.738;2023-02-28T14:28:06;4.50;;;4.10;;
28545;SDS011;15749;49.606;8.738;2023-02-28T14:30:51;5.03;;;4.53;;
28545;SDS011;15749;49.606;8.738;2023-02-28T14:33:48;4.50;;;3.90;;
28545;SDS011;15749;49.606;8.738;2023-02-28T14:36:35;4.77;;;4.37;;
28545;SDS011;15749;49.606;8.738;2023-02-28T14:39:07;4.23;;;3.90;;
28545;SDS011;15749;49.606;8.738;2023-02-28T14:41:42;4.53;;;4.13;;
28545;SDS011;15749;49.606;8.738;2023-02-28T14:44:16;5.03;;;4.47;;
28545;SDS011;15749;49.606;8.738;2023-02-28T14:46:48;5.17;;;4.63;;
28545;SDS011;15749;49.606;8.738;2023-02-28T14:49:21;4.90;;;4.40;;
28545;SDS011;15749;49.606;8.738;2023-02-28T14:52:05;5.37;;;4.63;;
28545;SDS011;15749;49.606;8.738;2023-02-28T14:54:43;5.10;;;4.60;;
28545;SDS011;15749;49.606;8.738;2023-02-28T14:57:20;5.07;;;4.17;;
28545;SDS011;15749;49.606;8.738;2023-02-28T14:59:59;5.20;;;4.70;;
28545;SDS011;15749;49.606;8.738;2023-02-28T15:02:34;4.97;;;4.50;;
28545;SDS011;15749;49.606;8.738;2023-02-28T15:05:16;4.97;;;4.47;;
28545;SDS011;15749;49.606;8.738;2023-02-28T15:08:04;4.33;;;3.93;;
28545;SDS011;15749;49.606;8.738;2023-02-28T15:10:40;4.43;;;4.03;;
28545;SDS011;15749;49.606;8.738;2023-02-28T15:13:12;4.90;;;4.40;;
28545;SDS011;15749;49.606;8.738;2023-02-28T15:15:45;4.87;;;4.37;;
28545;SDS011;15749;49.606;8.738;2023-02-28T15:18:35;4.30;;;3.90;;
28545;SDS011;15749;49.606;8.738;2023-02-28T15:21:16;4.70;;;4.30;;
28545;SDS011;15749;49.606;8.738;2023-02-28T15:23:49;4.83;;;4.33;;
28545;SDS011;15749;49.606;8.738;2023-02-28T15:26:26;4.53;;;4.13;;
28545;SDS011;15749;49.606;8.738;2023-02-28T15:28:59;4.90;;;4.40;;
28545;SDS011;15749;49.606;8.738;2023-02-28T15:31:31;4.77;;;4.33;;
28545;SDS011;15749;49.606;8.738;2023-02-28T15:34:22;4.60;;;4.20;;
28545;SDS011;15749;49.606;8.738;2023-02-28T15:39:57;4.90;;;4.33;;
28545;SDS011;15749;49.606;8.738;2023-02-28T15:42:38;5.57;;;4.90;;
28545;SDS011;15749;49.606;8.738;2023-02-28T15:48:05;4.53;;;4.13;;
28545;SDS011;15749;49.606;8.738;2023-02-28T15:50:50;5.07;;;4.57;;
28545;SDS011;15749;49.606;8.738;2023-02-28T15:53:23;5.93;;;5.37;;
28545;SDS011;15749;49.606;8.738;2023-02-28T15:55:58;4.77;;;4.37;;
28545;SDS011;15749;49.606;8.738;2023-02-28T15:58:30;5.07;;;4.67;;
28545;SDS011;15749;49.606;8.738;2023-02-28T16:03:49;6.30;;;4.37;;
28545;SDS011;15749;49.606;8.738;2023-02-28T16:06:24;4.97;;;4.53;;